createdAt,value
2023-04-27T00:00:53.431Z,65.47
2023-04-27T00:01:53.423Z,65.56
2023-04-27T00:02:53.612Z,65.56
2023-04-27T00:03:53.554Z,65.56
2023-04-27T00:05:53.446Z,65.56
2023-04-27T00:06:53.384Z,65.56
2023-04-27T00:07:53.367Z,65.56
2023-04-27T00:08:53.344Z,65.56
2023-04-27T00:09:53.386Z,65.56
2023-04-27T00:10:53.335Z,65.56
2023-04-27T00:11:53.295Z,65.67
2023-04-27T00:12:53.300Z,65.67
2023-04-27T00:13:53.294Z,65.67
2023-04-27T00:14:53.292Z,65.67
2023-04-27T00:15:53.283Z,65.77
2023-04-27T00:16:53.374Z,65.77
2023-04-27T00:17:53.312Z,65.77
2023-04-27T00:18:53.213Z,65.77
2023-04-27T00:19:53.209Z,65.77
2023-04-27T00:20:53.213Z,65.87
2023-04-27T00:21:53.183Z,65.87
2023-04-27T00:22:53.191Z,65.87
2023-04-27T00:23:53.166Z,65.87
2023-04-27T00:24:53.167Z,65.87
2023-04-27T00:25:53.171Z,65.87
2023-04-27T00:26:53.157Z,65.87
2023-04-27T00:27:53.140Z,65.87
2023-04-27T00:28:53.114Z,65.97
2023-04-27T00:29:53.092Z,65.97
2023-04-27T00:30:53.100Z,65.97
2023-04-27T00:31:53.128Z,66.07
2023-04-27T00:32:53.088Z,66.07
2023-04-27T00:33:53.078Z,66.07
2023-04-27T00:34:53.048Z,66.07
2023-04-27T00:35:53.042Z,66.07
2023-04-27T00:36:53.052Z,66.17
2023-04-27T00:37:53.014Z,66.17
2023-04-27T00:38:53.007Z,66.27
2023-04-27T00:39:53.002Z,66.27
2023-04-27T00:40:59.638Z,66.37
2023-04-27T00:41:52.970Z,66.37
2023-04-27T00:42:53.019Z,66.37
2023-04-27T00:43:52.963Z,66.47
2023-04-27T00:44:52.936Z,66.47
2023-04-27T00:45:52.993Z,66.47
2023-04-27T00:46:52.917Z,66.47
2023-04-27T00:47:52.981Z,66.47
2023-04-27T00:48:52.891Z,66.47
2023-04-27T00:49:52.868Z,66.47
2023-04-27T00:50:52.877Z,66.47
2023-04-27T00:51:52.868Z,66.47
2023-04-27T00:52:52.858Z,66.47
2023-04-27T00:53:52.830Z,66.47
2023-04-27T00:54:52.843Z,66.47
2023-04-27T00:55:52.815Z,66.47
2023-04-27T00:56:52.802Z,66.47
2023-04-27T00:57:52.793Z,66.47
2023-04-27T00:58:52.816Z,66.47
2023-04-27T00:59:52.788Z,66.47
2023-04-27T01:00:52.859Z,66.57
2023-04-27T01:01:52.769Z,66.57
2023-04-27T01:02:52.998Z,66.57
2023-04-27T01:03:53.014Z,66.57
2023-04-27T01:04:53.473Z,66.67
2023-04-27T01:05:54.681Z,66.67
2023-04-27T01:06:52.929Z,66.67
2023-04-27T01:07:53.005Z,66.67
2023-04-27T01:08:53.128Z,66.77
2023-04-27T01:09:52.683Z,66.77
2023-04-27T01:10:52.665Z,66.77
2023-04-27T01:11:52.631Z,66.77
2023-04-27T01:12:52.650Z,66.77
2023-04-27T01:13:52.630Z,66.87
2023-04-27T01:14:52.630Z,66.87
2023-04-27T01:15:52.600Z,66.87
2023-04-27T01:16:52.713Z,66.87
2023-04-27T01:17:52.660Z,66.97
2023-04-27T01:18:52.557Z,66.97
2023-04-27T01:19:52.538Z,66.87
2023-04-27T01:20:52.558Z,66.97
2023-04-27T01:21:52.530Z,66.97
2023-04-27T01:22:52.513Z,66.97
2023-04-27T01:23:52.513Z,66.97
2023-04-27T01:24:52.514Z,66.97
2023-04-27T01:25:52.493Z,66.97
2023-04-27T01:26:52.465Z,66.97
2023-04-27T01:27:52.450Z,66.97
2023-04-27T01:28:52.463Z,66.97
2023-04-27T01:29:52.429Z,66.97
2023-04-27T01:30:52.468Z,66.97
2023-04-27T01:31:52.429Z,66.97
2023-04-27T01:32:52.434Z,66.97
2023-04-27T01:33:52.402Z,66.97
2023-04-27T01:34:52.413Z,66.97
2023-04-27T01:35:52.389Z,66.97
2023-04-27T01:36:52.383Z,66.97
2023-04-27T01:37:52.352Z,66.97
2023-04-27T01:38:52.358Z,66.97
2023-04-27T01:39:52.331Z,66.97
2023-04-27T01:40:52.338Z,66.97
2023-04-27T01:41:52.332Z,66.97
2023-04-27T01:42:52.323Z,66.97
2023-04-27T01:43:52.281Z,66.97
2023-04-27T01:44:52.275Z,66.97
2023-04-27T01:45:52.287Z,66.97
2023-04-27T01:46:52.276Z,66.97
2023-04-27T01:47:52.285Z,67.07
2023-04-27T01:48:52.275Z,67.07
2023-04-27T01:49:52.236Z,67.07
2023-04-27T01:50:52.230Z,67.07
2023-04-27T01:51:52.209Z,67.07
2023-04-27T01:52:52.203Z,67.07
2023-04-27T01:53:52.191Z,67.07
2023-04-27T01:54:52.182Z,67.07
2023-04-27T01:55:52.153Z,67.07
2023-04-27T01:56:52.164Z,67.07
2023-04-27T01:57:52.136Z,67.07
2023-04-27T01:58:52.155Z,67.07
2023-04-27T01:59:52.118Z,67.07
2023-04-27T02:00:52.114Z,67.07
2023-04-27T02:01:52.141Z,67.07
2023-04-27T02:02:52.157Z,67.07
2023-04-27T02:03:52.240Z,67.18
2023-04-27T02:04:52.210Z,67.07
2023-04-27T02:05:52.049Z,67.18
2023-04-27T02:06:52.047Z,67.18
2023-04-27T02:07:52.028Z,67.18
2023-04-27T02:08:52.045Z,67.18
2023-04-27T02:09:52.022Z,67.18
2023-04-27T02:10:52.030Z,67.18
2023-04-27T02:11:51.983Z,67.18
2023-04-27T02:12:52.025Z,67.18
2023-04-27T02:13:51.980Z,67.18
2023-04-27T02:14:51.964Z,67.18
2023-04-27T02:15:52.010Z,67.18
2023-04-27T02:16:51.931Z,67.18
2023-04-27T02:17:51.980Z,67.18
2023-04-27T02:18:51.930Z,67.27
2023-04-27T02:19:51.932Z,67.27
2023-04-27T02:20:51.887Z,67.27
2023-04-27T02:21:51.882Z,67.27
2023-04-27T02:22:51.868Z,67.27
2023-04-27T02:23:51.850Z,67.27
2023-04-27T02:24:51.864Z,67.27
2023-04-27T02:25:51.838Z,67.27
2023-04-27T02:26:51.846Z,67.27
2023-04-27T02:27:51.821Z,67.27
2023-04-27T02:28:51.803Z,67.27
2023-04-27T02:29:51.790Z,67.27
2023-04-27T02:30:51.796Z,67.27
2023-04-27T02:31:51.829Z,67.27
2023-04-27T02:32:51.848Z,67.27
2023-04-27T02:33:51.754Z,67.38
2023-04-27T02:34:51.758Z,67.38
2023-04-27T02:35:51.753Z,67.38
2023-04-27T02:36:51.749Z,67.38
2023-04-27T02:37:51.718Z,67.38
2023-04-27T02:38:51.712Z,67.38
2023-04-27T02:39:51.715Z,67.38
2023-04-27T02:40:51.685Z,67.38
2023-04-27T02:41:51.676Z,67.47
2023-04-27T02:42:51.694Z,67.47
2023-04-27T02:43:51.663Z,67.47
2023-04-27T02:44:51.643Z,67.47
2023-04-27T02:45:51.621Z,67.47
2023-04-27T02:46:51.677Z,67.47
2023-04-27T02:47:51.635Z,67.47
2023-04-27T02:48:51.594Z,67.47
2023-04-27T02:49:51.637Z,67.47
2023-04-27T02:50:51.623Z,67.58
2023-04-27T02:51:51.554Z,67.58
2023-04-27T02:52:51.564Z,67.58
2023-04-27T02:53:51.549Z,67.58
2023-04-27T02:54:51.531Z,67.58
2023-04-27T02:55:51.531Z,67.58
2023-04-27T02:56:51.530Z,67.58
2023-04-27T02:57:51.492Z,67.68
2023-04-27T02:58:51.493Z,67.68
2023-04-27T02:59:51.473Z,67.68
2023-04-27T03:00:51.509Z,67.68
2023-04-27T03:01:51.454Z,67.68
2023-04-27T03:02:51.574Z,67.68
2023-04-27T03:03:51.542Z,67.78
2023-04-27T03:04:51.533Z,67.78
2023-04-27T03:05:51.393Z,67.78
2023-04-27T03:06:51.432Z,67.78
2023-04-27T03:07:51.397Z,67.78
2023-04-27T03:08:51.362Z,67.88
2023-04-27T03:09:51.348Z,67.88
2023-04-27T03:10:51.356Z,67.98
2023-04-27T03:11:51.366Z,67.98
2023-04-27T03:12:51.338Z,67.98
2023-04-27T03:13:51.327Z,67.98
2023-04-27T03:14:51.291Z,67.98
2023-04-27T03:15:51.297Z,67.98
2023-04-27T03:16:51.390Z,67.98
2023-04-27T03:17:51.331Z,67.98
2023-04-27T03:18:51.264Z,68.08
2023-04-27T03:19:51.240Z,68.08
2023-04-27T03:20:51.246Z,68.08
2023-04-27T03:21:51.224Z,68.08
2023-04-27T03:22:51.235Z,68.08
2023-04-27T03:23:51.217Z,68.08
2023-04-27T03:24:51.209Z,68.18
2023-04-27T03:25:51.176Z,68.18
2023-04-27T03:26:51.185Z,68.18
2023-04-27T03:27:51.173Z,68.18
2023-04-27T03:28:51.144Z,68.18
2023-04-27T03:29:51.137Z,68.28
2023-04-27T03:30:51.138Z,68.28
2023-04-27T03:31:51.184Z,68.18
2023-04-27T03:32:51.210Z,68.18
2023-04-27T03:33:51.104Z,68.18
2023-04-27T03:34:51.102Z,68.18
2023-04-27T03:35:51.058Z,68.18
2023-04-27T03:36:51.094Z,68.18
2023-04-27T03:37:51.053Z,68.18
2023-04-27T03:38:51.027Z,68.28
2023-04-27T03:39:51.043Z,68.18
2023-04-27T03:40:51.049Z,68.28
2023-04-27T03:41:51.021Z,68.28
2023-04-27T03:42:51.001Z,68.28
2023-04-27T03:43:50.991Z,68.38
2023-04-27T03:44:50.991Z,68.38
2023-04-27T03:45:51.011Z,68.38
2023-04-27T03:46:50.962Z,68.38
2023-04-27T03:47:50.942Z,68.38
2023-04-27T03:48:50.955Z,68.38
2023-04-27T03:49:50.931Z,68.38
2023-04-27T03:50:51.013Z,68.38
2023-04-27T03:51:50.882Z,68.48
2023-04-27T03:52:50.906Z,68.41
2023-04-27T03:53:50.866Z,68.48
2023-04-27T03:54:50.886Z,68.59
2023-04-27T03:55:50.848Z,68.59
2023-04-27T03:56:50.851Z,68.59
2023-04-27T03:57:50.842Z,68.48
2023-04-27T03:58:50.820Z,68.48
2023-04-27T03:59:50.805Z,68.48
2023-04-27T04:00:50.795Z,68.59
2023-04-27T04:01:50.849Z,68.48
2023-04-27T04:02:50.871Z,68.59
2023-04-27T04:03:50.869Z,68.59
2023-04-27T04:04:50.836Z,68.59
2023-04-27T04:05:50.739Z,68.59
2023-04-27T04:06:50.734Z,68.59
2023-04-27T04:07:50.721Z,68.59
2023-04-27T04:08:50.724Z,68.59
2023-04-27T04:09:50.722Z,68.59
2023-04-27T04:10:50.767Z,68.59
2023-04-27T04:11:50.672Z,68.59
2023-04-27T04:12:50.686Z,68.59
2023-04-27T04:13:50.666Z,68.59
2023-04-27T04:14:50.696Z,68.59
2023-04-27T04:15:50.644Z,68.59
2023-04-27T04:16:50.636Z,68.59
2023-04-27T04:17:50.642Z,68.59
2023-04-27T04:18:50.601Z,68.68
2023-04-27T04:19:50.580Z,68.68
2023-04-27T04:20:50.637Z,68.68
2023-04-27T04:21:50.589Z,68.68
2023-04-27T04:22:50.556Z,68.59
2023-04-27T04:23:50.555Z,68.59
2023-04-27T04:24:50.564Z,68.59
2023-04-27T04:25:50.558Z,68.59
2023-04-27T04:26:50.530Z,68.48
2023-04-27T04:27:50.507Z,68.59
2023-04-27T04:28:50.536Z,68.59
2023-04-27T04:29:50.495Z,68.59
2023-04-27T04:30:50.486Z,68.59
2023-04-27T04:31:50.570Z,68.59
2023-04-27T04:32:50.492Z,68.59
2023-04-27T04:33:50.470Z,68.59
2023-04-27T04:34:50.424Z,68.59
2023-04-27T04:35:50.444Z,68.59
2023-04-27T04:36:50.433Z,68.59
2023-04-27T04:37:50.399Z,68.59
2023-04-27T04:38:50.382Z,68.59
2023-04-27T04:39:50.368Z,68.59
2023-04-27T04:40:50.387Z,68.59
2023-04-27T04:41:50.371Z,68.59
2023-04-27T04:42:50.339Z,68.48
2023-04-27T04:43:50.322Z,68.48
2023-04-27T04:44:50.317Z,68.48
2023-04-27T04:45:50.300Z,68.48
2023-04-27T04:46:50.427Z,68.48
2023-04-27T04:47:50.328Z,68.59
2023-04-27T04:48:51.648Z,68.59
2023-04-27T04:49:50.287Z,68.59
2023-04-27T04:50:50.305Z,68.59
2023-04-27T04:51:50.277Z,68.59
2023-04-27T04:52:50.224Z,68.59
2023-04-27T04:53:50.236Z,68.65
2023-04-27T04:54:50.223Z,68.55
2023-04-27T04:55:50.223Z,68.59
2023-04-27T04:56:50.213Z,68.55
2023-04-27T04:57:50.214Z,68.59
2023-04-27T04:58:50.176Z,68.55
2023-04-27T04:59:50.191Z,68.55
2023-04-27T05:00:50.167Z,68.59
2023-04-27T05:01:50.204Z,68.59
2023-04-27T05:02:50.378Z,68.59
2023-04-27T05:03:50.330Z,68.59
2023-04-27T05:04:50.205Z,68.68
2023-04-27T05:05:50.090Z,68.68
2023-04-27T05:06:50.091Z,68.68
2023-04-27T05:07:50.093Z,68.68
2023-04-27T05:08:50.082Z,68.68
2023-04-27T05:09:50.082Z,68.68
2023-04-27T05:10:50.044Z,68.68
2023-04-27T05:11:50.038Z,68.68
2023-04-27T05:12:50.038Z,68.68
2023-04-27T05:13:50.006Z,68.68
2023-04-27T05:14:49.994Z,68.68
2023-04-27T05:15:50.028Z,68.68
2023-04-27T05:16:49.981Z,68.68
2023-04-27T05:17:50.010Z,68.68
2023-04-27T05:18:49.971Z,68.78
2023-04-27T05:19:49.950Z,68.78
2023-04-27T05:20:49.990Z,68.78
2023-04-27T05:21:49.921Z,68.68
2023-04-27T05:22:49.920Z,68.68
2023-04-27T05:23:49.915Z,68.68
2023-04-27T05:24:49.900Z,68.78
2023-04-27T05:25:49.876Z,68.78
2023-04-27T05:26:49.878Z,68.78
2023-04-27T05:27:49.856Z,68.78
2023-04-27T05:28:49.875Z,68.78
2023-04-27T05:29:49.849Z,68.78
2023-04-27T05:30:49.837Z,68.78
2023-04-27T05:31:49.867Z,68.78
2023-04-27T05:32:49.860Z,68.78
2023-04-27T05:33:49.797Z,68.88
2023-04-27T05:34:49.815Z,68.78
2023-04-27T05:35:49.781Z,68.78
2023-04-27T05:36:49.771Z,68.78
2023-04-27T05:37:49.763Z,68.88
2023-04-27T05:38:49.761Z,68.88
2023-04-27T05:39:49.746Z,68.88
2023-04-27T05:40:49.751Z,68.88
2023-04-27T05:41:49.722Z,68.88
2023-04-27T05:42:49.697Z,68.88
2023-04-27T05:43:49.696Z,68.88
2023-04-27T05:44:49.688Z,68.98
2023-04-27T05:45:49.713Z,68.98
2023-04-27T05:46:49.663Z,68.98
2023-04-27T05:47:49.725Z,68.98
2023-04-27T05:48:49.639Z,68.98
2023-04-27T05:49:49.613Z,68.98
2023-04-27T05:50:49.623Z,69.09
2023-04-27T05:51:49.594Z,69.09
2023-04-27T05:52:49.600Z,69.09
2023-04-27T05:53:49.602Z,69.09
2023-04-27T05:54:49.558Z,69.09
2023-04-27T05:55:49.568Z,69.09
2023-04-27T05:56:49.533Z,69.09
2023-04-27T05:57:57.166Z,69.18
2023-04-27T05:58:50.520Z,69.18
2023-04-27T05:59:49.524Z,69.18
2023-04-27T06:00:49.510Z,69.18
2023-04-27T06:01:49.528Z,69.18
2023-04-27T06:02:49.619Z,69.18
2023-04-27T06:03:49.569Z,69.18
2023-04-27T06:04:49.494Z,69.18
2023-04-27T06:05:49.477Z,69.18
2023-04-27T06:06:49.450Z,69.18
2023-04-27T06:07:49.437Z,69.18
2023-04-27T06:08:49.415Z,69.29
2023-04-27T06:09:49.424Z,69.29
2023-04-27T06:10:49.400Z,69.29
2023-04-27T06:11:49.412Z,69.29
2023-04-27T06:12:49.372Z,69.29
2023-04-27T06:13:49.357Z,69.29
2023-04-27T06:14:49.356Z,69.29
2023-04-27T06:15:49.376Z,69.29
2023-04-27T06:16:49.323Z,69.29
2023-04-27T06:17:49.331Z,69.29
2023-04-27T06:18:49.342Z,69.25
2023-04-27T06:19:49.335Z,69.25
2023-04-27T06:20:49.285Z,69.29
2023-04-27T06:21:49.275Z,69.25
2023-04-27T06:22:49.266Z,69.29
2023-04-27T06:23:49.258Z,69.25
2023-04-27T06:24:49.249Z,69.25
2023-04-27T06:25:49.250Z,69.25
2023-04-27T06:26:49.210Z,69.25
2023-04-27T06:27:49.225Z,69.15
2023-04-27T06:28:49.189Z,69.15
2023-04-27T06:29:49.198Z,69.15
2023-04-27T06:30:49.197Z,69.15
2023-04-27T06:31:49.179Z,69.15
2023-04-27T06:32:49.179Z,69.15
2023-04-27T06:33:49.150Z,69.15
2023-04-27T06:34:49.136Z,69.15
2023-04-27T06:35:49.130Z,69.15
2023-04-27T06:36:49.100Z,69.15
2023-04-27T06:37:49.119Z,69.15
2023-04-27T06:38:49.093Z,69.15
2023-04-27T06:39:49.089Z,69.15
2023-04-27T06:40:49.068Z,69.15
2023-04-27T06:41:49.053Z,69.15
2023-04-27T06:42:49.054Z,69.15
2023-04-27T06:43:49.048Z,69.15
2023-04-27T06:44:49.041Z,69.15
2023-04-27T06:45:49.105Z,69.15
2023-04-27T06:46:49.057Z,69.15
2023-04-27T06:47:49.034Z,69.15
2023-04-27T06:48:48.988Z,69.15
2023-04-27T06:49:49.853Z,69.25
2023-04-27T06:50:48.958Z,69.25
2023-04-27T06:51:48.945Z,69.25
2023-04-27T06:52:48.946Z,69.25
2023-04-27T06:53:48.947Z,69.25
2023-04-27T06:54:48.907Z,69.25
2023-04-27T06:55:48.919Z,69.25
2023-04-27T06:56:48.899Z,69.25
2023-04-27T06:57:48.893Z,69.25
2023-04-27T06:58:48.861Z,69.25
2023-04-27T06:59:48.876Z,69.15
2023-04-27T07:00:48.853Z,69.15
2023-04-27T07:01:48.851Z,69.15
2023-04-27T07:02:48.897Z,69.15
2023-04-27T07:03:48.939Z,69.15
2023-04-27T07:04:48.877Z,69.15
2023-04-27T07:05:48.811Z,69.25
2023-04-27T07:06:48.777Z,69.15
2023-04-27T07:07:48.777Z,69.25
2023-04-27T07:08:48.755Z,69.15
2023-04-27T07:09:48.747Z,69.15
2023-04-27T07:10:48.745Z,69.15
2023-04-27T07:11:48.751Z,69.15
2023-04-27T07:12:48.708Z,69.15
2023-04-27T07:13:48.728Z,69.15
2023-04-27T07:14:48.688Z,69.15
2023-04-27T07:15:48.717Z,69.15
2023-04-27T07:16:48.687Z,69.15
2023-04-27T07:17:48.699Z,69.15
2023-04-27T07:18:48.670Z,69.15
2023-04-27T07:19:48.674Z,69.15
2023-04-27T07:20:48.617Z,69.15
2023-04-27T07:21:48.781Z,69.15
2023-04-27T07:22:48.632Z,69.25
2023-04-27T07:23:48.625Z,69.15
2023-04-27T07:24:48.605Z,69.25
2023-04-27T07:25:48.595Z,69.25
2023-04-27T07:26:48.561Z,69.25
2023-04-27T07:27:48.552Z,69.45
2023-04-27T07:28:48.550Z,69.45
2023-04-27T07:29:48.558Z,69.45
2023-04-27T07:30:48.532Z,69.45
2023-04-27T07:31:49.386Z,69.45
2023-04-27T07:32:48.500Z,69.45
2023-04-27T07:33:48.493Z,69.76
2023-04-27T07:34:53.286Z,69.65
2023-04-27T07:35:49.456Z,69.45
2023-04-27T07:36:48.448Z,69.38
2023-04-27T07:37:48.441Z,69.18
2023-04-27T07:38:48.440Z,68.88
2023-04-27T07:39:48.448Z,68.59
2023-04-27T07:40:48.421Z,68.38
2023-04-27T07:41:48.407Z,68.08
2023-04-27T07:42:48.379Z,67.88
2023-04-27T07:43:48.368Z,67.47
2023-04-27T07:44:48.361Z,67.07
2023-04-27T07:45:48.396Z,67.11
2023-04-27T07:46:48.329Z,67.51
2023-04-27T07:47:48.375Z,67.61
2023-04-27T07:48:48.304Z,67.71
2023-04-27T07:49:48.318Z,67.81
2023-04-27T07:50:48.285Z,67.91
2023-04-27T07:51:48.309Z,67.81
2023-04-27T07:52:48.316Z,67.51
2023-04-27T07:53:48.263Z,67.11
2023-04-27T07:54:48.264Z,66.60
2023-04-27T07:55:48.247Z,66.50
2023-04-27T07:56:48.219Z,66.23
2023-04-27T07:57:48.216Z,66.53
2023-04-27T07:58:48.256Z,66.13
2023-04-27T07:59:48.196Z,65.53
2023-04-27T08:00:48.193Z,65.33
2023-04-27T08:01:48.278Z,65.02
2023-04-27T08:02:48.431Z,64.62
2023-04-27T08:03:48.518Z,64.42
2023-04-27T08:04:48.711Z,64.22
2023-04-27T08:05:48.377Z,64.12
2023-04-27T08:06:48.627Z,64.02
2023-04-27T08:07:48.296Z,64.02
2023-04-27T08:08:48.092Z,63.82
2023-04-27T08:09:48.116Z,63.71
2023-04-27T08:10:48.120Z,63.92
2023-04-27T08:11:48.116Z,64.02
2023-04-27T08:12:48.060Z,64.02
2023-04-27T08:13:48.060Z,64.09
2023-04-27T08:14:48.034Z,64.09
2023-04-27T08:15:48.030Z,64.09
2023-04-27T08:16:48.071Z,64.09
2023-04-27T08:17:48.038Z,64.19
2023-04-27T08:18:48.016Z,64.19
2023-04-27T08:19:48.029Z,64.19
2023-04-27T08:20:47.966Z,64.19
2023-04-27T08:21:47.981Z,64.19
2023-04-27T08:22:47.948Z,64.29
2023-04-27T08:23:47.923Z,64.29
2023-04-27T08:24:47.932Z,64.39
2023-04-27T08:25:47.927Z,64.39
2023-04-27T08:26:47.889Z,64.39
2023-04-27T08:27:47.900Z,64.39
2023-04-27T08:28:47.907Z,64.49
2023-04-27T08:29:47.859Z,64.49
2023-04-27T08:30:47.891Z,64.49
2023-04-27T08:31:47.977Z,64.49
2023-04-27T08:32:47.976Z,64.59
2023-04-27T08:33:47.828Z,64.59
2023-04-27T08:34:47.833Z,64.69
2023-04-27T08:35:47.882Z,64.59
2023-04-27T08:36:47.795Z,64.59
2023-04-27T08:37:47.785Z,64.69
2023-04-27T08:38:47.766Z,64.69
2023-04-27T08:39:47.767Z,64.79
2023-04-27T08:40:47.747Z,64.79
2023-04-27T08:41:47.732Z,64.79
2023-04-27T08:42:47.716Z,64.89
2023-04-27T08:43:47.724Z,64.89
2023-04-27T08:44:47.705Z,64.99
2023-04-27T08:45:47.704Z,64.99
2023-04-27T08:46:47.792Z,64.99
2023-04-27T08:47:47.713Z,65.09
2023-04-27T08:48:47.657Z,65.09
2023-04-27T08:49:48.011Z,65.09
2023-04-27T08:50:49.000Z,65.19
2023-04-27T08:51:47.629Z,65.09
2023-04-27T08:52:57.995Z,65.19
2023-04-27T08:53:47.952Z,65.19
2023-04-27T08:54:47.663Z,65.19
2023-04-27T08:55:47.570Z,65.19
2023-04-27T08:56:47.569Z,65.30
2023-04-27T08:57:47.567Z,65.30
2023-04-27T08:58:47.551Z,65.39
2023-04-27T08:59:47.629Z,65.39
2023-04-27T09:00:47.542Z,65.39
2023-04-27T09:01:47.549Z,65.39
2023-04-27T09:02:47.789Z,65.50
2023-04-27T09:03:47.625Z,65.50
2023-04-27T09:04:47.636Z,65.50
2023-04-27T09:06:00.649Z,65.50
2023-04-27T09:06:48.514Z,65.50
2023-04-27T09:07:47.456Z,65.39
2023-04-27T09:08:47.452Z,65.50
2023-04-27T09:09:47.446Z,65.50
2023-04-27T09:10:47.632Z,65.59
2023-04-27T09:11:47.400Z,65.70
2023-04-27T09:12:47.467Z,65.59
2023-04-27T09:13:47.407Z,65.59
2023-04-27T09:14:47.374Z,65.59
2023-04-27T09:15:48.530Z,65.70
2023-04-27T09:16:47.381Z,65.80
2023-04-27T09:17:48.072Z,65.80
2023-04-27T09:18:47.352Z,65.90
2023-04-27T09:19:47.333Z,65.90
2023-04-27T09:20:47.318Z,65.90
2023-04-27T09:21:47.797Z,65.90
2023-04-27T09:22:47.303Z,66.00
2023-04-27T09:23:47.277Z,65.90
2023-04-27T09:24:47.293Z,66.00
2023-04-27T09:25:47.263Z,65.90
2023-04-27T09:26:47.241Z,65.80
2023-04-27T09:27:47.220Z,65.70
2023-04-27T09:28:47.224Z,65.62
2023-04-27T09:29:47.214Z,65.53
2023-04-27T09:30:47.239Z,65.62
2023-04-27T09:31:47.250Z,65.53
2023-04-27T09:32:47.224Z,65.53
2023-04-27T09:33:47.165Z,65.62
2023-04-27T09:34:47.184Z,65.62
2023-04-27T09:35:47.176Z,65.62
2023-04-27T09:36:47.135Z,65.73
2023-04-27T09:37:47.111Z,65.73
2023-04-27T09:38:47.124Z,65.73
2023-04-27T09:39:47.131Z,65.83
2023-04-27T09:40:47.098Z,65.93
2023-04-27T09:41:47.111Z,66.03
2023-04-27T09:42:47.088Z,66.03
2023-04-27T09:43:47.061Z,66.03
2023-04-27T09:44:47.095Z,66.13
2023-04-27T09:45:47.060Z,66.13
2023-04-27T09:46:47.081Z,66.23
2023-04-27T09:47:47.079Z,66.13
2023-04-27T09:48:47.002Z,66.13
2023-04-27T09:49:46.982Z,66.13
2023-04-27T09:50:47.015Z,66.30
2023-04-27T09:51:46.988Z,66.40
2023-04-27T09:52:46.997Z,66.50
2023-04-27T09:53:46.946Z,66.43
2023-04-27T09:54:46.930Z,66.50
2023-04-27T09:55:46.935Z,66.43
2023-04-27T09:56:47.009Z,66.33
2023-04-27T09:57:46.910Z,66.43
2023-04-27T09:58:46.976Z,66.40
2023-04-27T09:59:46.966Z,66.53
2023-04-27T10:00:46.904Z,66.53
2023-04-27T10:01:47.109Z,66.43
2023-04-27T10:02:53.370Z,66.33
2023-04-27T10:03:47.975Z,66.33
2023-04-27T10:04:46.875Z,66.33
2023-04-27T10:05:46.809Z,66.33
2023-04-27T10:06:46.810Z,66.33
2023-04-27T10:07:46.797Z,66.43
2023-04-27T10:08:46.817Z,66.33
2023-04-27T10:09:46.837Z,66.33
2023-04-27T10:10:46.798Z,66.33
2023-04-27T10:11:46.768Z,66.43
2023-04-27T10:12:46.771Z,66.33
2023-04-27T10:13:46.767Z,66.43
2023-04-27T10:14:46.761Z,66.43
2023-04-27T10:15:46.723Z,66.43
2023-04-27T10:16:46.924Z,66.43
2023-04-27T10:17:46.718Z,66.43
2023-04-27T10:18:46.679Z,66.43
2023-04-27T10:19:46.696Z,66.43
2023-04-27T10:20:46.764Z,66.53
2023-04-27T10:21:46.654Z,66.53
2023-04-27T10:22:46.618Z,66.53
2023-04-27T10:23:46.602Z,66.53
2023-04-27T10:24:46.607Z,66.63
2023-04-27T10:25:46.648Z,66.63
2023-04-27T10:26:46.592Z,66.63
2023-04-27T10:27:46.604Z,66.63
2023-04-27T10:28:46.559Z,66.63
2023-04-27T10:29:46.546Z,66.53
2023-04-27T10:30:46.763Z,66.43
2023-04-27T10:31:46.526Z,66.43
2023-04-27T10:32:46.749Z,66.43
2023-04-27T10:33:46.509Z,66.33
2023-04-27T10:34:46.525Z,66.33
2023-04-27T10:35:46.490Z,66.23
2023-04-27T10:36:46.508Z,66.20
2023-04-27T10:37:46.470Z,66.20
2023-04-27T10:38:46.483Z,66.20
2023-04-27T10:39:49.116Z,66.20
2023-04-27T10:40:46.442Z,65.90
2023-04-27T10:41:46.443Z,65.80
2023-04-27T10:42:46.411Z,65.80
2023-04-27T10:43:46.405Z,65.80
2023-04-27T10:44:46.419Z,65.80
2023-04-27T10:45:46.388Z,65.90
2023-04-27T10:46:46.392Z,66.10
2023-04-27T10:47:46.363Z,66.20
2023-04-27T10:48:46.358Z,66.30
2023-04-27T10:49:46.363Z,66.20
2023-04-27T10:50:46.314Z,65.80
2023-04-27T10:51:46.314Z,65.50
2023-04-27T10:52:46.322Z,65.50
2023-04-27T10:53:46.336Z,65.50
2023-04-27T10:54:46.318Z,65.50
2023-04-27T10:55:46.275Z,65.30
2023-04-27T10:56:46.271Z,66.00
2023-04-27T10:57:46.251Z,66.10
2023-04-27T10:58:49.377Z,66.60
2023-04-27T10:59:46.251Z,66.30
2023-04-27T11:00:46.222Z,65.70
2023-04-27T11:01:46.555Z,65.59
2023-04-27T11:02:46.264Z,65.59
2023-04-27T11:03:46.290Z,65.59
2023-04-27T11:04:46.992Z,65.50
2023-04-27T11:05:46.340Z,65.50
2023-04-27T11:06:46.170Z,65.39
2023-04-27T11:07:46.144Z,65.39
2023-04-27T11:08:46.153Z,65.19
2023-04-27T11:09:46.119Z,64.89
2023-04-27T11:10:46.215Z,64.69
2023-04-27T11:11:46.139Z,64.59
2023-04-27T11:12:46.094Z,64.59
2023-04-27T11:13:46.091Z,64.39
2023-04-27T11:14:46.075Z,64.29
2023-04-27T11:15:46.109Z,63.59
2023-04-27T11:16:46.056Z,62.78
2023-04-27T11:17:46.102Z,62.27
2023-04-27T11:18:46.037Z,62.07
2023-04-27T11:19:46.108Z,62.01
2023-04-27T11:20:46.007Z,61.60
2023-04-27T11:21:46.028Z,61.40
2023-04-27T11:22:46.432Z,60.89
2023-04-27T11:23:46.331Z,60.19
2023-04-27T11:24:45.955Z,59.99
2023-04-27T11:25:45.949Z,59.69
2023-04-27T11:26:46.127Z,59.48
2023-04-27T11:27:46.008Z,59.19
2023-04-27T11:28:47.052Z,59.08
2023-04-27T11:29:48.536Z,58.88
2023-04-27T11:30:46.001Z,58.78
2023-04-27T11:31:47.006Z,58.68
2023-04-27T11:32:45.941Z,58.58
2023-04-27T11:33:46.097Z,58.48
2023-04-27T11:34:45.841Z,58.38
2023-04-27T11:35:46.602Z,58.48
2023-04-27T11:36:46.146Z,57.98
2023-04-27T11:37:46.413Z,57.57
2023-04-27T11:38:46.668Z,57.48
2023-04-27T11:39:46.821Z,57.28
2023-04-27T11:40:46.869Z,57.07
2023-04-27T11:41:46.356Z,57.30
2023-04-27T11:42:46.388Z,57.20
2023-04-27T11:43:46.639Z,57.50
2023-04-27T11:44:46.678Z,57.50
2023-04-27T11:45:46.214Z,56.90
2023-04-27T11:46:46.523Z,56.20
2023-04-27T11:47:46.653Z,56.40
2023-04-27T11:48:45.786Z,56.29
2023-04-27T11:49:46.845Z,56.20
2023-04-27T11:50:45.669Z,56.40
2023-04-27T11:51:45.715Z,55.99
2023-04-27T11:52:45.666Z,55.79
2023-04-27T11:53:45.653Z,55.69
2023-04-27T11:54:45.633Z,55.59
2023-04-27T11:55:45.605Z,55.49
2023-04-27T11:56:45.610Z,55.29
2023-04-27T11:57:45.623Z,55.99
2023-04-27T11:58:46.498Z,55.99
2023-04-27T11:59:45.955Z,55.69
2023-04-27T12:00:45.560Z,55.49
2023-04-27T12:01:45.565Z,55.19
2023-04-27T12:02:45.655Z,54.99
2023-04-27T12:03:45.609Z,54.99
2023-04-27T12:04:45.678Z,55.49
2023-04-27T12:05:45.562Z,55.39
2023-04-27T12:06:45.499Z,55.19
2023-04-27T12:07:45.494Z,55.29
2023-04-27T12:08:45.504Z,55.08
2023-04-27T12:09:45.501Z,54.99
2023-04-27T12:10:45.489Z,54.99
2023-04-27T12:11:45.437Z,54.99
2023-04-27T12:12:45.447Z,54.88
2023-04-27T12:13:45.486Z,54.79
2023-04-27T12:14:45.422Z,54.79
2023-04-27T12:15:46.432Z,54.58
2023-04-27T12:16:45.440Z,54.58
2023-04-27T12:17:45.394Z,54.48
2023-04-27T12:18:45.381Z,54.38
2023-04-27T12:19:45.481Z,54.30
2023-04-27T12:20:45.351Z,54.18
2023-04-27T12:21:45.341Z,54.00
2023-04-27T12:22:45.320Z,54.10
2023-04-27T12:23:45.331Z,54.00
2023-04-27T12:24:45.318Z,53.90
2023-04-27T12:25:45.277Z,54.00
2023-04-27T12:26:45.295Z,54.21
2023-04-27T12:27:45.270Z,54.10
2023-04-27T12:28:45.265Z,54.10
2023-04-27T12:29:45.258Z,54.21
2023-04-27T12:30:45.327Z,54.10
2023-04-27T12:31:45.317Z,53.90
2023-04-27T12:32:45.250Z,54.10
2023-04-27T12:33:45.204Z,54.10
2023-04-27T12:34:45.198Z,54.10
2023-04-27T12:35:45.227Z,54.21
2023-04-27T12:36:45.175Z,54.21
2023-04-27T12:37:45.553Z,54.10
2023-04-27T12:38:45.148Z,53.90
2023-04-27T12:39:45.153Z,54.10
2023-04-27T12:40:45.136Z,54.10
2023-04-27T12:41:45.136Z,53.90
2023-04-27T12:42:45.161Z,53.60
2023-04-27T12:43:45.098Z,53.60
2023-04-27T12:44:45.231Z,53.60
2023-04-27T12:45:45.079Z,53.40
2023-04-27T12:46:45.209Z,53.50
2023-04-27T12:48:01.200Z,53.30
2023-04-27T12:48:46.865Z,53.60
2023-04-27T12:49:46.445Z,53.70
2023-04-27T12:50:45.584Z,53.60
2023-04-27T12:51:45.932Z,53.60
2023-04-27T12:52:46.100Z,53.50
2023-04-27T12:53:46.302Z,53.80